Time;durP1;ratioP1;P1;durP2;ratioP2;P2;SDS_P1;SDS_P2;PMS_P1;PMS_P2;Temp;Humidity;BMP_temperature;BMP_pressure;BME280_temperature;BME280_humidity;BME280_pressure;Samples;Min_cycle;Max_cycle;Signal;HPM_P1;HPM_P2
2021/12/31 00:00:27;;;;;;;7.65;1.80;;;12.70;99.90;;;;;;4933101;29;20047;-84
2021/12/31 00:02:53;;;;;;;15.27;2.67;;;12.70;99.90;;;;;;4918726;29;20055;-84
2021/12/31 00:05:18;;;;;;;14.73;2.10;;;12.70;99.90;;;;;;4902803;29;20047;-83
2021/12/31 00:07:45;;;;;;;19.85;3.25;;;12.70;99.90;;;;;;4934353;29;20059;-83
2021/12/31 00:10:11;;;;;;;8.48;2.00;;;12.80;99.90;;;;;;4918889;29;20181;-83
2021/12/31 00:12:37;;;;;;;8.77;2.10;;;12.70;99.90;;;;;;4934312;29;20077;-83
2021/12/31 00:15:03;;;;;;;9.43;2.20;;;12.70;99.90;;;;;;4918592;29;20549;-84
2021/12/31 00:17:29;;;;;;;12.13;2.83;;;12.70;99.90;;;;;;4933717;29;20048;-84
2021/12/31 00:20:09;;;;;;;10.23;2.15;;;12.80;99.90;;;;;;4918715;29;20142;-84
2021/12/31 00:22:56;;;;;;;10.85;2.20;;;12.70;99.90;;;;;;4933978;29;20375;-84
2021/12/31 00:25:21;;;;;;;8.67;2.17;;;12.70;99.90;;;;;;4921068;29;20383;-84
2021/12/31 00:27:47;;;;;;;10.73;2.15;;;12.70;99.90;;;;;;4917792;29;20793;-83
2021/12/31 00:30:13;;;;;;;11.38;2.38;;;12.80;99.90;;;;;;4933678;29;20048;-83
2021/12/31 00:32:39;;;;;;;8.80;2.70;;;12.70;99.90;;;;;;4917623;29;20458;-83
2021/12/31 00:35:06;;;;;;;8.18;2.05;;;12.70;99.90;;;;;;4933520;29;20055;-83
2021/12/31 00:37:34;;;;;;;10.65;2.20;;;12.70;99.90;;;;;;4885711;29;20103;-85
2021/12/31 00:40:01;;;;;;;13.23;3.25;;;12.70;99.90;;;;;;4899162;29;20108;-83
2021/12/31 00:42:27;;;;;;;12.05;2.33;;;12.70;99.90;;;;;;4898760;29;20466;-84
2021/12/31 00:44:54;;;;;;;8.70;2.70;;;12.70;99.90;;;;;;4897526;29;20044;-86
2021/12/31 00:47:19;;;;;;;9.45;2.15;;;12.70;99.90;;;;;;4913100;29;20052;-84
2021/12/31 00:49:46;;;;;;;9.60;2.05;;;12.70;99.90;;;;;;4897028;29;20054;-85
2021/12/31 00:52:12;;;;;;;10.20;3.08;;;12.70;99.90;;;;;;4897346;29;20056;-87
2021/12/31 00:54:38;;;;;;;13.10;3.45;;;12.70;99.90;;;;;;4881401;29;20490;-85
2021/12/31 00:57:05;;;;;;;15.43;3.17;;;12.70;99.90;;;;;;4898189;29;20064;-85
2021/12/31 00:59:32;;;;;;;15.27;4.35;;;12.70;99.90;;;;;;4914453;29;20070;-84
2021/12/31 01:01:59;;;;;;;15.63;4.05;;;12.70;99.90;;;;;;4883990;29;20142;-83
2021/12/31 01:04:25;;;;;;;23.05;5.65;;;12.70;99.90;;;;;;4899414;29;20040;-84
2021/12/31 01:06:51;;;;;;;12.68;4.43;;;12.70;99.90;;;;;;4899179;29;20060;-83
2021/12/31 01:09:17;;;;;;;9.60;4.18;;;12.70;99.90;;;;;;4883396;29;20422;-84
2021/12/31 01:11:46;;;;;;;18.02;5.15;;;12.70;99.90;;;;;;4883437;29;20106;-84
2021/12/31 01:14:35;;;;;;;17.58;4.55;;;12.70;99.90;;;;;;4914909;29;20126;-84
2021/12/31 01:17:06;;;;;;;11.98;3.08;;;12.70;99.90;;;;;;4928926;29;20059;-84
2021/12/31 01:19:46;;;;;;;13.30;3.55;;;12.70;99.90;;;;;;4897069;29;20059;-84
2021/12/31 01:22:22;;;;;;;14.98;3.35;;;12.70;99.90;;;;;;4898215;29;20509;-85
2021/12/31 01:24:48;;;;;;;15.30;3.80;;;12.60;99.90;;;;;;4914718;29;20421;-84
2021/12/31 01:27:14;;;;;;;15.88;3.97;;;12.60;99.90;;;;;;4883479;29;20486;-85
2021/12/31 01:29:40;;;;;;;12.23;3.28;;;12.60;99.90;;;;;;4866548;29;20051;-84
2021/12/31 01:32:07;;;;;;;11.43;2.92;;;12.60;99.90;;;;;;4866475;29;20048;-85
2021/12/31 01:34:33;;;;;;;8.48;2.95;;;12.60;99.90;;;;;;4896594;29;20067;-85
2021/12/31 01:36:59;;;;;;;16.55;3.15;;;12.60;99.90;;;;;;4911253;29;20064;-83
2021/12/31 01:39:26;;;;;;;13.60;3.28;;;12.60;99.90;;;;;;4916835;29;20090;-86
2021/12/31 01:41:52;;;;;;;16.35;3.28;;;12.60;99.90;;;;;;4917036;29;20203;-85
2021/12/31 01:44:20;;;;;;;15.57;3.60;;;12.60;99.90;;;;;;4918041;29;20051;-84
2021/12/31 01:46:58;;;;;;;10.40;2.72;;;12.60;99.90;;;;;;4901946;29;20060;-84
2021/12/31 01:49:27;;;;;;;15.07;2.88;;;12.60;99.90;;;;;;4918394;29;20092;-85
2021/12/31 01:51:54;;;;;;;17.95;3.75;;;12.60;99.90;;;;;;4918070;29;20051;-83
2021/12/31 01:54:20;;;;;;;14.98;3.30;;;12.60;99.90;;;;;;4918054;29;20486;-84
2021/12/31 01:56:46;;;;;;;13.10;3.08;;;12.60;99.90;;;;;;4917402;29;20047;-84
2021/12/31 01:59:15;;;;;;;13.18;3.38;;;12.60;99.90;;;;;;4909839;29;20058;-84
2021/12/31 02:01:40;;;;;;;14.02;2.78;;;12.60;99.90;;;;;;4917617;29;20052;-83
2021/12/31 02:04:06;;;;;;;9.68;2.88;;;12.60;99.90;;;;;;4914344;29;20051;-83
2021/12/31 02:06:34;;;;;;;11.68;2.20;;;12.60;99.90;;;;;;4920948;29;20450;-83
2021/12/31 02:09:03;;;;;;;12.20;2.65;;;12.50;99.90;;;;;;4901952;29;20055;-82
2021/12/31 02:11:29;;;;;;;13.02;2.75;;;12.60;99.90;;;;;;4917774;29;20087;-83
2021/12/31 02:13:55;;;;;;;12.43;2.92;;;12.50;99.90;;;;;;4917517;29;20548;-83
2021/12/31 02:16:22;;;;;;;10.25;2.40;;;12.50;99.90;;;;;;4902084;29;20048;-84
2021/12/31 02:18:48;;;;;;;17.73;3.20;;;12.50;99.90;;;;;;4901697;29;20055;-83
2021/12/31 02:21:14;;;;;;;13.48;3.00;;;12.50;99.90;;;;;;4916639;29;20044;-86
2021/12/31 02:23:45;;;;;;;8.98;2.25;;;12.50;99.90;;;;;;4884301;29;20115;-84
2021/12/31 02:26:12;;;;;;;11.60;2.65;;;12.50;99.90;;;;;;4900501;29;20083;-85
2021/12/31 02:28:38;;;;;;;10.80;2.33;;;12.60;99.90;;;;;;4900255;29;20063;-84
2021/12/31 02:31:05;;;;;;;12.82;3.53;;;12.50;99.90;;;;;;4916333;29;20074;-84
2021/12/31 02:33:31;;;;;;;14.40;3.97;;;12.60;99.90;;;;;;4917036;29;20054;-83
2021/12/31 02:36:00;;;;;;;11.48;3.58;;;12.60;99.90;;;;;;4930533;29;20520;-84
2021/12/31 02:38:26;;;;;;;9.07;2.90;;;12.60;99.90;;;;;;4954501;29;20442;-84
2021/12/31 02:40:52;;;;;;;8.60;2.47;;;12.70;99.90;;;;;;4923191;29;20055;-84
2021/12/31 02:43:18;;;;;;;9.68;2.65;;;12.70;99.90;;;;;;4907744;29;20473;-84
2021/12/31 02:45:43;;;;;;;8.15;2.40;;;12.70;99.90;;;;;;4907717;29;20047;-84
2021/12/31 02:48:10;;;;;;;9.88;2.72;;;12.80;99.90;;;;;;4923055;29;20047;-84
2021/12/31 02:50:40;;;;;;;8.05;2.60;;;12.80;99.90;;;;;;4923235;29;20563;-83
2021/12/31 02:53:14;;;;;;;11.32;3.22;;;12.80;99.90;;;;;;4939210;29;20047;-84
2021/12/31 02:55:43;;;;;;;8.13;2.63;;;12.80;99.90;;;;;;4922914;29;20054;-87
2021/12/31 02:58:10;;;;;;;8.73;2.75;;;12.90;99.90;;;;;;4938878;29;20051;-86
2021/12/31 03:00:39;;;;;;;10.43;2.80;;;12.90;99.90;;;;;;4935223;29;20051;-83
2021/12/31 03:03:08;;;;;;;7.07;2.80;;;12.90;99.90;;;;;;4919769;29;20117;-83
2021/12/31 03:05:35;;;;;;;11.68;3.33;;;12.90;99.90;;;;;;4903950;29;20051;-83
2021/12/31 03:08:08;;;;;;;8.30;2.70;;;12.90;99.90;;;;;;4887949;29;20056;-82
2021/12/31 03:10:34;;;;;;;13.40;2.88;;;12.90;99.90;;;;;;4935925;29;20056;-83
2021/12/31 03:13:01;;;;;;;6.65;3.30;;;12.90;99.90;;;;;;4919331;29;20587;-83
2021/12/31 03:15:27;;;;;;;9.05;3.22;;;12.90;99.90;;;;;;4903115;29;20044;-83
2021/12/31 03:17:57;;;;;;;11.45;3.60;;;12.90;99.90;;;;;;4888158;29;20048;-83
2021/12/31 03:20:36;;;;;;;9.60;3.28;;;13.00;99.90;;;;;;4919802;29;20043;-84
2021/12/31 03:23:04;;;;;;;8.73;3.40;;;12.90;99.90;;;;;;4905225;29;20542;-83
2021/12/31 03:25:31;;;;;;;7.22;3.40;;;12.90;99.90;;;;;;4919349;29;20512;-83
2021/12/31 03:27:56;;;;;;;6.90;3.50;;;13.00;99.90;;;;;;4918878;29;20051;-83
2021/12/31 03:30:22;;;;;;;11.20;4.15;;;12.90;99.90;;;;;;4903754;29;20060;-85
2021/12/31 03:32:48;;;;;;;9.70;4.03;;;13.00;99.90;;;;;;4903132;29;20051;-83
2021/12/31 03:35:14;;;;;;;7.38;3.67;;;13.00;99.90;;;;;;4903114;29;20143;-83
2021/12/31 03:37:39;;;;;;;8.52;3.58;;;13.00;99.90;;;;;;4903366;29;20055;-83
2021/12/31 03:40:06;;;;;;;14.32;4.70;;;13.00;99.90;;;;;;4887708;29;20374;-83
2021/12/31 03:42:32;;;;;;;8.57;3.70;;;13.00;99.90;;;;;;4919212;29;20047;-82
2021/12/31 03:44:58;;;;;;;10.20;3.65;;;13.00;99.90;;;;;;4902646;29;20040;-83
2021/12/31 03:47:24;;;;;;;5.75;3.75;;;13.00;99.90;;;;;;4918756;29;20056;-83
2021/12/31 03:49:49;;;;;;;11.15;3.60;;;13.00;99.90;;;;;;4902887;29;20124;-84
2021/12/31 03:52:15;;;;;;;11.15;3.90;;;13.10;99.90;;;;;;4919112;29;20051;-83
2021/12/31 03:54:41;;;;;;;8.05;3.70;;;13.00;99.90;;;;;;4903079;29;20059;-83
2021/12/31 03:57:07;;;;;;;6.40;2.70;;;13.10;99.90;;;;;;4903071;29;20048;-83
2021/12/31 03:59:33;;;;;;;8.75;2.90;;;13.10;99.90;;;;;;4917228;29;20040;-83
2021/12/31 04:01:58;;;;;;;8.85;2.30;;;13.10;99.90;;;;;;4900699;29;20044;-83
2021/12/31 04:04:24;;;;;;;5.22;2.30;;;13.10;99.90;;;;;;4885907;29;20063;-84
2021/12/31 04:06:50;;;;;;;8.43;2.28;;;13.10;99.90;;;;;;4885728;29;20063;-88
2021/12/31 04:09:16;;;;;;;9.07;2.50;;;13.10;99.90;;;;;;4907852;29;20047;-83
2021/12/31 04:11:41;;;;;;;6.20;2.38;;;13.10;99.90;;;;;;4920592;29;20051;-83
2021/12/31 04:14:07;;;;;;;4.57;1.90;;;13.10;99.90;;;;;;4904357;29;20127;-83
2021/12/31 04:16:33;;;;;;;5.07;1.80;;;13.10;99.90;;;;;;4919539;29;20046;-83
2021/12/31 04:18:59;;;;;;;7.72;2.90;;;13.20;99.90;;;;;;4935099;29;20102;-83
2021/12/31 04:21:25;;;;;;;8.70;2.55;;;13.20;99.90;;;;;;4920145;29;20052;-84
2021/12/31 04:24:06;;;;;;;9.40;2.55;;;13.20;99.90;;;;;;4937054;29;20133;-84
2021/12/31 04:26:32;;;;;;;6.40;2.33;;;13.20;99.90;;;;;;4921445;29;20074;-83
2021/12/31 04:28:58;;;;;;;6.50;2.10;;;13.10;99.90;;;;;;4937087;29;20055;-83
2021/12/31 04:31:24;;;;;;;6.43;1.92;;;13.20;99.90;;;;;;4905700;29;20366;-83
2021/12/31 04:33:50;;;;;;;4.05;2.13;;;13.20;99.90;;;;;;4921269;29;20557;-88
2021/12/31 04:36:16;;;;;;;7.63;2.13;;;13.20;99.90;;;;;;4920720;29;20493;-82
2021/12/31 04:38:41;;;;;;;6.63;2.50;;;13.20;99.90;;;;;;4920836;29;20087;-82
2021/12/31 04:41:07;;;;;;;8.52;3.25;;;13.20;99.90;;;;;;4920882;29;20492;-82
2021/12/31 04:43:33;;;;;;;10.40;3.72;;;13.20;99.90;;;;;;4921054;29;20043;-83
2021/12/31 04:45:59;;;;;;;7.68;3.90;;;13.20;99.90;;;;;;4904918;29;20047;-83
2021/12/31 04:48:25;;;;;;;8.13;4.25;;;13.20;99.90;;;;;;4921204;29;20087;-83
2021/12/31 04:50:50;;;;;;;8.65;4.30;;;13.10;99.90;;;;;;4921189;29;20086;-83
2021/12/31 04:53:16;;;;;;;11.02;5.40;;;13.10;99.90;;;;;;4935554;29;20086;-84
2021/12/31 04:55:42;;;;;;;7.75;4.47;;;13.10;99.90;;;;;;4919281;29;20485;-85
2021/12/31 04:58:08;;;;;;;11.05;5.00;;;13.10;99.90;;;;;;4919156;29;20039;-83
2021/12/31 05:00:34;;;;;;;8.93;4.80;;;13.10;99.90;;;;;;4897987;29;20406;-84
2021/12/31 05:03:10;;;;;;;10.60;5.00;;;13.10;99.90;;;;;;4897666;29;20486;-83
2021/12/31 05:05:37;;;;;;;9.20;5.13;;;13.10;99.90;;;;;;4913536;29;20051;-83
2021/12/31 05:08:03;;;;;;;9.52;5.07;;;13.00;99.90;;;;;;4913128;29;20542;-83
2021/12/31 05:10:31;;;;;;;7.65;4.40;;;13.00;99.90;;;;;;4904601;29;20063;-83
2021/12/31 05:12:57;;;;;;;9.80;4.95;;;13.00;99.90;;;;;;4901033;29;20051;-85
2021/12/31 05:15:27;;;;;;;9.40;4.40;;;13.00;99.90;;;;;;4932863;29;20044;-84
2021/12/31 05:17:54;;;;;;;10.13;4.70;;;13.00;99.90;;;;;;4886096;29;20052;-83
2021/12/31 05:20:20;;;;;;;5.82;3.15;;;13.00;99.90;;;;;;4900693;29;20102;-84
2021/12/31 05:22:45;;;;;;;6.18;4.15;;;13.10;99.90;;;;;;4916622;29;20083;-84
2021/12/31 05:25:11;;;;;;;7.95;3.58;;;13.10;99.90;;;;;;4900865;29;20056;-83
2021/12/31 05:27:37;;;;;;;7.53;3.67;;;13.10;99.90;;;;;;4900812;29;20059;-83
2021/12/31 05:30:04;;;;;;;5.35;3.80;;;13.10;99.90;;;;;;4884909;29;20130;-84
2021/12/31 05:32:30;;;;;;;8.07;3.72;;;13.10;99.90;;;;;;4901704;29;20470;-83
2021/12/31 05:34:56;;;;;;;7.22;3.83;;;13.10;99.90;;;;;;4900298;29;20146;-84
2021/12/31 05:37:21;;;;;;;7.88;2.75;;;13.10;99.90;;;;;;4899854;29;20147;-84
2021/12/31 05:39:47;;;;;;;6.63;3.08;;;13.10;99.90;;;;;;4919377;29;20180;-86
2021/12/31 05:42:13;;;;;;;4.88;3.22;;;13.10;99.90;;;;;;4903668;29;20115;-83
2021/12/31 05:44:39;;;;;;;5.82;2.92;;;13.10;99.90;;;;;;4904760;29;20055;-83
2021/12/31 05:47:05;;;;;;;4.65;2.90;;;13.00;99.90;;;;;;4904383;29;20052;-84
2021/12/31 05:49:31;;;;;;;8.23;3.08;;;13.00;99.90;;;;;;4920913;29;20154;-82
2021/12/31 05:51:57;;;;;;;9.02;3.33;;;12.90;99.90;;;;;;4905592;29;20426;-83
2021/12/31 05:54:23;;;;;;;7.95;3.10;;;12.90;99.90;;;;;;4889331;29;20549;-85
2021/12/31 05:56:48;;;;;;;3.70;2.47;;;12.90;99.90;;;;;;4919084;29;20048;-84
2021/12/31 05:59:14;;;;;;;5.00;2.53;;;13.00;99.90;;;;;;4908449;29;20127;-83
2021/12/31 06:01:40;;;;;;;8.57;2.70;;;13.10;99.90;;;;;;4905166;29;20134;-83
2021/12/31 06:04:06;;;;;;;6.15;2.70;;;13.10;99.90;;;;;;4920046;29;20808;-83
2021/12/31 06:06:32;;;;;;;4.20;2.20;;;13.10;99.90;;;;;;4904803;29;20059;-83
2021/12/31 06:08:57;;;;;;;4.82;2.38;;;13.10;99.90;;;;;;4935786;29;20402;-83
2021/12/31 06:11:23;;;;;;;3.63;1.98;;;13.10;99.90;;;;;;4888959;29;20474;-83
2021/12/31 06:13:55;;;;;;;3.35;1.75;;;13.00;99.90;;;;;;4904594;29;20136;-83
2021/12/31 06:16:21;;;;;;;5.10;2.65;;;13.00;99.90;;;;;;4904121;29;20078;-83
2021/12/31 06:18:46;;;;;;;4.13;2.28;;;13.00;99.90;;;;;;4920388;29;20134;-84
2021/12/31 06:21:12;;;;;;;4.40;1.83;;;12.90;99.90;;;;;;4888958;29;20058;-83
2021/12/31 06:23:38;;;;;;;3.67;2.00;;;12.90;99.90;;;;;;4904947;29;20058;-84
2021/12/31 06:26:04;;;;;;;4.50;2.03;;;12.90;99.90;;;;;;4904594;29;20051;-88
2021/12/31 06:28:29;;;;;;;3.33;1.80;;;12.90;99.90;;;;;;4904733;29;20115;-83
2021/12/31 06:30:55;;;;;;;8.38;2.20;;;12.90;99.90;;;;;;4889112;29;20091;-84
2021/12/31 06:33:21;;;;;;;4.63;2.22;;;13.00;99.90;;;;;;4904166;29;20051;-83
2021/12/31 06:35:46;;;;;;;3.97;1.80;;;12.90;99.90;;;;;;4903987;29;20071;-84
2021/12/31 06:38:12;;;;;;;5.50;1.83;;;13.00;99.90;;;;;;4904245;29;20106;-83
2021/12/31 06:40:39;;;;;;;5.95;2.65;;;13.00;99.90;;;;;;4904336;29;20048;-83
2021/12/31 06:43:04;;;;;;;6.43;1.80;;;13.00;99.90;;;;;;4904349;29;20055;-87
2021/12/31 06:45:30;;;;;;;5.50;1.98;;;13.00;99.90;;;;;;4888427;29;20195;-83
2021/12/31 06:47:56;;;;;;;3.78;2.10;;;13.00;99.90;;;;;;4936895;29;20047;-84
2021/12/31 06:50:22;;;;;;;4.60;2.47;;;13.00;99.90;;;;;;4936360;29;20047;-84
2021/12/31 06:52:48;;;;;;;5.63;2.03;;;13.00;99.90;;;;;;4920160;29;20142;-84
2021/12/31 06:55:14;;;;;;;4.57;1.95;;;12.90;99.90;;;;;;4919751;29;20044;-85
2021/12/31 06:57:40;;;;;;;4.28;2.22;;;12.90;99.90;;;;;;4904044;29;20468;-83
2021/12/31 07:00:07;;;;;;;4.88;2.10;;;12.90;99.90;;;;;;4888661;29;20131;-83
2021/12/31 07:02:33;;;;;;;6.78;2.03;;;12.90;99.90;;;;;;4919212;29;20047;-83
2021/12/31 07:04:59;;;;;;;4.13;1.80;;;12.90;99.90;;;;;;4903782;29;20050;-83
2021/12/31 07:07:25;;;;;;;5.05;1.75;;;12.80;99.90;;;;;;4903607;29;20062;-83
2021/12/31 07:09:50;;;;;;;6.10;1.75;;;12.80;99.90;;;;;;4888612;29;20057;-83
2021/12/31 07:12:16;;;;;;;5.15;2.17;;;12.60;99.90;;;;;;4919250;29;20482;-84
2021/12/31 07:14:42;;;;;;;3.35;2.00;;;12.60;99.90;;;;;;4902471;29;20047;-83
2021/12/31 07:17:08;;;;;;;3.70;2.00;;;12.50;99.90;;;;;;4917952;29;20063;-84
2021/12/31 07:19:34;;;;;;;5.60;2.00;;;12.50;99.90;;;;;;4917971;29;20130;-85
2021/12/31 07:22:00;;;;;;;5.38;1.80;;;12.50;99.90;;;;;;4887455;29;20151;-83
2021/12/31 07:24:26;;;;;;;4.40;2.33;;;12.50;99.90;;;;;;4887768;29;20502;-83
2021/12/31 07:26:52;;;;;;;4.35;2.30;;;12.40;99.90;;;;;;4888136;29;20051;-83
2021/12/31 07:29:18;;;;;;;4.78;2.20;;;12.40;99.90;;;;;;4903401;29;20058;-84
2021/12/31 07:31:44;;;;;;;3.45;1.60;;;12.40;99.90;;;;;;4887995;29;20051;-84
2021/12/31 07:34:09;;;;;;;7.57;2.55;;;12.50;99.90;;;;;;4887467;29;20102;-84
2021/12/31 07:36:35;;;;;;;4.35;1.80;;;12.40;99.90;;;;;;4901094;29;20138;-85
2021/12/31 07:39:06;;;;;;;7.75;2.65;;;12.40;99.90;;;;;;4902537;29;20044;-83
2021/12/31 07:41:33;;;;;;;2.75;1.67;;;12.40;99.90;;;;;;4918755;29;20571;-86
2021/12/31 07:43:58;;;;;;;2.22;1.70;;;12.40;99.90;;;;;;4918855;29;20085;-85
2021/12/31 07:46:24;;;;;;;4.43;2.67;;;12.40;99.90;;;;;;4918469;29;20397;-83
2021/12/31 07:48:50;;;;;;;5.97;2.33;;;12.40;99.90;;;;;;4918590;29;20445;-84
2021/12/31 07:51:17;;;;;;;7.28;2.55;;;12.40;99.90;;;;;;4886952;29;20091;-84
2021/12/31 07:53:43;;;;;;;4.53;2.30;;;12.30;99.90;;;;;;4903428;29;20107;-83
2021/12/31 07:56:09;;;;;;;6.85;2.50;;;12.30;99.90;;;;;;4887517;29;20050;-83
2021/12/31 07:58:35;;;;;;;6.70;2.60;;;12.30;99.90;;;;;;4918620;29;20044;-84
2021/12/31 08:01:00;;;;;;;5.55;2.50;;;12.20;99.90;;;;;;4886738;29;20394;-83
2021/12/31 08:03:26;;;;;;;5.18;2.53;;;12.40;99.90;;;;;;4902468;29;20096;-84
2021/12/31 08:05:52;;;;;;;3.38;2.13;;;12.30;99.90;;;;;;4902589;29;20051;-83
2021/12/31 08:08:18;;;;;;;5.43;1.98;;;12.30;99.90;;;;;;4902347;29;20573;-85
2021/12/31 08:10:43;;;;;;;6.22;2.55;;;12.40;99.90;;;;;;4902712;29;20055;-86
2021/12/31 08:13:11;;;;;;;4.22;2.40;;;12.40;99.90;;;;;;4887561;29;20070;-83
2021/12/31 08:15:37;;;;;;;5.07;2.45;;;12.40;99.90;;;;;;4917712;29;20122;-84
2021/12/31 08:18:03;;;;;;;6.68;2.15;;;12.50;99.90;;;;;;4902622;29;20051;-84
2021/12/31 08:20:29;;;;;;;7.10;2.50;;;12.60;99.90;;;;;;4902481;29;20166;-84
2021/12/31 08:23:04;;;;;;;4.93;2.45;;;12.70;99.90;;;;;;4902566;29;20056;-85
2021/12/31 08:25:30;;;;;;;3.03;1.77;;;12.70;99.90;;;;;;4902090;29;20414;-84
2021/12/31 08:27:55;;;;;;;5.30;2.00;;;12.70;99.90;;;;;;4902728;29;20048;-84
2021/12/31 08:30:21;;;;;;;4.50;2.28;;;12.80;99.90;;;;;;4902243;29;20051;-85
2021/12/31 08:32:47;;;;;;;6.43;2.40;;;12.70;99.90;;;;;;4902276;29;20062;-85
2021/12/31 08:35:12;;;;;;;4.25;2.00;;;12.70;99.90;;;;;;4898466;29;20146;-83
2021/12/31 08:37:38;;;;;;;5.93;2.40;;;12.70;99.90;;;;;;4883131;29;20048;-84
2021/12/31 08:40:05;;;;;;;5.20;2.47;;;12.70;99.90;;;;;;4883686;29;20367;-83
2021/12/31 08:42:30;;;;;;;1.98;1.60;;;12.70;99.90;;;;;;4898692;29;20133;-84
2021/12/31 08:44:56;;;;;;;5.30;2.42;;;12.70;99.90;;;;;;4899080;29;20048;-85
2021/12/31 08:47:22;;;;;;;6.78;2.50;;;12.70;99.90;;;;;;4883274;29;20052;-84
2021/12/31 08:49:48;;;;;;;5.55;2.75;;;12.80;99.90;;;;;;4899336;29;20059;-86
2021/12/31 08:52:14;;;;;;;5.35;2.22;;;12.80;99.90;;;;;;4913458;29;20052;-84
2021/12/31 08:54:40;;;;;;;3.00;2.13;;;12.90;99.90;;;;;;4881745;29;20512;-85
2021/12/31 08:57:05;;;;;;;6.13;1.92;;;12.90;99.90;;;;;;4897464;29;20067;-85
2021/12/31 08:59:31;;;;;;;6.60;2.45;;;13.00;99.90;;;;;;4886980;29;20064;-84
2021/12/31 09:01:58;;;;;;;4.03;2.17;;;13.00;99.90;;;;;;4864553;29;20045;-84
2021/12/31 09:04:24;;;;;;;3.00;2.30;;;13.00;99.90;;;;;;4879521;29;20055;-86
2021/12/31 09:06:50;;;;;;;4.38;2.17;;;13.00;99.90;;;;;;4880013;29;20044;-84
2021/12/31 09:09:16;;;;;;;6.95;2.60;;;13.00;99.90;;;;;;4870237;29;20068;-84
2021/12/31 09:11:43;;;;;;;3.83;2.35;;;13.00;99.90;;;;;;4898253;29;20042;-83
2021/12/31 09:14:11;;;;;;;6.10;2.22;;;13.00;99.90;;;;;;4901517;29;20112;-84
2021/12/31 09:16:38;;;;;;;9.15;2.95;;;13.00;99.90;;;;;;4916733;29;20055;-84
2021/12/31 09:19:04;;;;;;;3.10;1.90;;;13.00;99.90;;;;;;4871139;29;20044;-84
2021/12/31 09:21:30;;;;;;;5.22;2.38;;;13.00;99.90;;;;;;4902310;29;20058;-84
2021/12/31 09:23:55;;;;;;;2.90;1.83;;;12.90;99.90;;;;;;4902882;29;20098;-84
2021/12/31 09:26:21;;;;;;;4.32;2.20;;;12.90;99.90;;;;;;4887066;29;20051;-84
2021/12/31 09:28:47;;;;;;;7.68;2.30;;;12.90;99.90;;;;;;4886901;29;20146;-85
2021/12/31 09:31:13;;;;;;;5.32;2.22;;;13.00;99.90;;;;;;4886964;29;20505;-84
2021/12/31 09:33:39;;;;;;;4.50;2.35;;;13.00;99.90;;;;;;4904014;29;20066;-84
2021/12/31 09:36:05;;;;;;;3.95;2.40;;;13.10;99.90;;;;;;4904206;29;20552;-83
2021/12/31 09:38:31;;;;;;;5.85;2.50;;;13.00;99.90;;;;;;4903766;29;20146;-83
2021/12/31 09:40:57;;;;;;;4.15;1.90;;;13.10;99.90;;;;;;4919872;29;20051;-83
2021/12/31 09:43:22;;;;;;;6.28;2.30;;;13.10;99.90;;;;;;4920143;29;20059;-85
2021/12/31 09:45:50;;;;;;;6.03;2.30;;;13.10;99.90;;;;;;4888173;29;20474;-84
2021/12/31 09:48:19;;;;;;;4.53;2.72;;;13.20;99.90;;;;;;4903836;29;20074;-84
2021/12/31 09:50:47;;;;;;;5.07;2.58;;;13.20;99.90;;;;;;4904030;29;20052;-83
2021/12/31 09:53:15;;;;;;;4.38;2.20;;;13.20;99.90;;;;;;4919939;29;20063;-84
2021/12/31 09:55:45;;;;;;;5.72;2.72;;;13.10;99.90;;;;;;4887810;29;20462;-84
2021/12/31 09:58:15;;;;;;;6.25;2.90;;;13.10;99.90;;;;;;4904022;29;20150;-84
2021/12/31 10:00:49;;;;;;;5.55;3.10;;;13.10;99.90;;;;;;4900612;29;20056;-83
2021/12/31 10:03:17;;;;;;;7.03;2.33;;;13.10;99.90;;;;;;4884895;29;20486;-84
2021/12/31 10:05:44;;;;;;;5.72;1.83;;;13.00;99.90;;;;;;4885037;29;20051;-83
2021/12/31 10:08:25;;;;;;;6.10;2.22;;;13.00;99.90;;;;;;4900616;29;20044;-84
2021/12/31 10:11:20;;;;;;;6.47;3.10;;;12.90;99.90;;;;;;4902894;29;20062;-84
2021/12/31 10:13:55;;;;;;;7.55;3.00;;;12.80;99.90;;;;;;4902572;29;20136;-84
2021/12/31 10:16:26;;;;;;;8.25;3.70;;;12.70;99.90;;;;;;4902160;29;20042;-85
2021/12/31 10:19:18;;;;;;;6.90;3.50;;;12.60;99.90;;;;;;4917871;29;20663;-85
2021/12/31 10:21:46;;;;;;;3.95;2.47;;;12.60;99.90;;;;;;4901914;29;20059;-86
2021/12/31 10:24:34;;;;;;;6.57;3.30;;;12.60;99.90;;;;;;4917560;29;20082;-84
2021/12/31 10:27:23;;;;;;;4.30;3.20;;;12.70;99.90;;;;;;4902351;29;20044;-83
2021/12/31 10:29:56;;;;;;;5.10;2.50;;;12.80;99.90;;;;;;4917283;29;20135;-84
2021/12/31 10:32:49;;;;;;;4.28;2.40;;;12.80;99.90;;;;;;4902780;29;20375;-85
2021/12/31 10:35:21;;;;;;;8.02;3.30;;;12.90;99.90;;;;;;4863785;29;1115564;-84
2021/12/31 10:38:00;;;;;;;12.98;7.82;;;12.90;99.90;;;;;;4919121;29;20059;-83
2021/12/31 10:40:40;;;;;;;3.47;2.38;;;12.90;99.90;;;;;;4919435;29;20056;-83
2021/12/31 10:43:09;;;;;;;4.82;2.38;;;12.90;99.90;;;;;;4919517;29;20051;-84
2021/12/31 10:45:35;;;;;;;5.95;3.00;;;12.90;99.90;;;;;;4903815;29;20736;-84
2021/12/31 10:48:06;;;;;;;8.02;3.70;;;12.90;99.90;;;;;;4919854;29;20044;-84
2021/12/31 10:50:32;;;;;;;7.05;4.75;;;12.90;99.90;;;;;;4920002;29;20055;-85
2021/12/31 10:53:16;;;;;;;12.40;8.30;;;12.90;99.90;;;;;;4919509;29;20055;-84
2021/12/31 10:55:44;;;;;;;18.17;10.27;;;12.90;99.90;;;;;;4919046;29;20054;-84
2021/12/31 10:58:14;;;;;;;16.35;10.43;;;12.90;99.90;;;;;;4918420;29;20087;-83
2021/12/31 11:00:43;;;;;;;32.90;19.75;;;12.90;99.90;;;;;;4899768;29;20055;-84
2021/12/31 11:03:10;;;;;;;10.90;5.53;;;12.90;99.90;;;;;;4900625;29;20044;-83
2021/12/31 11:05:36;;;;;;;5.93;3.83;;;12.70;99.90;;;;;;4900224;29;20402;-87
2021/12/31 11:08:13;;;;;;;32.13;22.15;;;12.60;99.90;;;;;;4900396;29;20565;-84
2021/12/31 11:10:40;;;;;;;20.73;16.67;;;12.50;99.90;;;;;;4900626;29;20055;-83
2021/12/31 11:13:14;;;;;;;11.60;7.28;;;12.30;99.90;;;;;;4933832;29;20048;-85
2021/12/31 11:15:45;;;;;;;12.18;7.70;;;12.30;99.90;;;;;;4903022;29;20048;-83
2021/12/31 11:18:18;;;;;;;10.45;7.72;;;12.20;99.90;;;;;;4918826;29;20052;-83
2021/12/31 11:20:49;;;;;;;7.63;4.03;;;12.00;99.90;;;;;;4933966;29;20461;-82
2021/12/31 11:23:15;;;;;;;8.65;4.45;;;11.90;99.90;;;;;;4902736;29;20052;-82
2021/12/31 11:26:01;;;;;;;6.93;4.32;;;11.70;99.90;;;;;;4902496;29;20094;-82
2021/12/31 11:28:28;;;;;;;14.55;8.93;;;11.70;99.90;;;;;;4918855;29;20166;-83
2021/12/31 11:30:56;;;;;;;10.38;6.75;;;11.70;99.90;;;;;;4903311;29;20059;-82
2021/12/31 11:33:26;;;;;;;18.00;11.02;;;11.60;99.90;;;;;;4918853;29;20060;-83
2021/12/31 11:36:02;;;;;;;36.63;24.20;;;11.60;99.90;;;;;;4901349;29;20486;-84
2021/12/31 11:38:27;;;;;;;25.55;16.38;;;11.60;99.90;;;;;;4919097;29;20142;-83
2021/12/31 11:41:08;;;;;;;31.80;25.70;;;11.60;99.90;;;;;;4902656;29;20147;-82
2021/12/31 11:43:44;;;;;;;13.70;7.90;;;11.60;99.90;;;;;;4934751;29;20503;-83
2021/12/31 11:46:12;;;;;;;17.15;7.95;;;11.60;99.90;;;;;;4904021;29;20083;-83
2021/12/31 11:48:48;;;;;;;9.27;7.50;;;11.60;99.90;;;;;;4902800;29;20059;-83
2021/12/31 11:51:23;;;;;;;9.05;6.38;;;11.60;99.90;;;;;;4918740;29;20191;-83
2021/12/31 11:53:58;;;;;;;14.50;7.90;;;11.60;99.90;;;;;;4902784;29;20060;-84
2021/12/31 11:56:36;;;;;;;9.95;6.50;;;11.60;99.90;;;;;;4918582;29;20039;-84
2021/12/31 11:59:14;;;;;;;14.05;8.20;;;11.60;99.90;;;;;;4901979;29;20055;-83
2021/12/31 12:01:43;;;;;;;85.65;63.22;;;11.50;99.90;;;;;;4902427;29;20070;-82
2021/12/31 12:04:34;;;;;;;42.45;27.02;;;11.50;99.90;;;;;;4902279;29;20044;-83
2021/12/31 12:07:04;;;;;;;68.32;31.15;;;11.50;99.90;;;;;;4901218;29;20055;-84
2021/12/31 12:09:36;;;;;;;20.38;13.13;;;11.50;99.90;;;;;;4901702;29;20055;-84
2021/12/31 12:12:10;;;;;;;15.32;10.00;;;11.50;99.90;;;;;;4917464;29;20397;-84
2021/12/31 12:14:41;;;;;;;15.35;8.82;;;11.50;99.90;;;;;;4918005;29;20047;-84
2021/12/31 12:17:12;;;;;;;18.33;10.20;;;11.50;99.90;;;;;;4917385;29;20090;-83
2021/12/31 12:19:47;;;;;;;18.92;13.18;;;11.40;99.90;;;;;;4917677;29;20564;-84
2021/12/31 12:22:31;;;;;;;11.50;7.07;;;11.40;99.90;;;;;;4902578;29;20052;-85
2021/12/31 12:25:04;;;;;;;13.82;6.88;;;11.40;99.90;;;;;;4917663;29;20098;-85
2021/12/31 12:27:30;;;;;;;19.35;8.45;;;11.40;99.90;;;;;;4918078;29;20504;-83
2021/12/31 12:29:59;;;;;;;16.30;9.60;;;11.40;99.90;;;;;;4886455;29;20040;-84
2021/12/31 12:32:33;;;;;;;19.33;10.50;;;11.40;99.90;;;;;;4918178;29;20079;-87
2021/12/31 12:35:11;;;;;;;16.83;10.43;;;11.40;99.90;;;;;;4914137;29;20052;-86
2021/12/31 12:37:37;;;;;;;23.00;12.57;;;11.40;99.90;;;;;;4897889;29;20060;-84
2021/12/31 12:40:04;;;;;;;34.10;20.70;;;11.40;99.90;;;;;;4914402;29;20044;-85
2021/12/31 12:42:30;;;;;;;29.45;18.27;;;11.40;99.90;;;;;;4899080;29;20111;-84
2021/12/31 12:45:08;;;;;;;33.90;24.27;;;11.40;99.90;;;;;;4914791;29;20500;-84
2021/12/31 12:47:37;;;;;;;30.08;19.70;;;11.40;99.90;;;;;;4899092;29;20052;-85